createdAt,value
2022-09-13T00:04:04.225Z,100510.72
2022-09-13T00:09:07.277Z,100502.59
2022-09-13T00:14:10.430Z,100496.91
2022-09-13T00:19:14.474Z,100501.94
2022-09-13T00:24:17.564Z,100493.28
2022-09-13T00:29:20.403Z,100488.56
2022-09-13T00:34:24.714Z,100486.34
2022-09-13T00:39:27.432Z,100488.00
2022-09-13T00:44:55.157Z,100469.56
2022-09-13T00:50:03.929Z,100468.34
2022-09-13T00:55:13.064Z,100459.94
2022-09-13T01:00:19.373Z,100458.59
2022-09-13T01:05:27.726Z,100452.53
2022-09-13T01:10:31.669Z,100466.06
2022-09-13T01:15:34.372Z,100473.81
2022-09-13T01:20:54.994Z,100451.97
2022-09-13T01:26:32.375Z,100466.69
2022-09-13T01:31:43.279Z,100444.75
2022-09-13T01:37:09.290Z,100431.16
2022-09-13T01:42:19.401Z,100414.56
2022-09-13T01:47:28.999Z,100406.25
2022-09-13T01:52:41.721Z,100399.84
2022-09-13T01:57:51.576Z,100381.94
2022-09-13T02:03:04.196Z,100378.69
2022-09-13T02:08:12.917Z,100380.69
2022-09-13T02:13:20.545Z,100392.56
2022-09-13T02:18:30.977Z,100382.59
2022-09-13T02:23:39.180Z,100381.34
2022-09-13T02:28:43.919Z,100375.22
2022-09-13T02:33:53.117Z,100375.38
2022-09-13T02:39:01.158Z,100384.13
2022-09-13T02:44:10.176Z,100374.22
2022-09-13T02:49:19.012Z,100367.09
2022-09-13T02:54:28.453Z,100355.13
2022-09-13T02:59:31.258Z,100355.53
2022-09-13T03:04:36.209Z,100354.59
2022-09-13T03:09:47.205Z,100354.78
2022-09-13T03:14:57.544Z,100345.09
2022-09-13T03:20:10.780Z,100329.41
2022-09-13T03:25:25.443Z,100326.78
2022-09-13T03:30:28.536Z,100324.28
2022-09-13T03:35:39.775Z,100309.94
2022-09-13T03:40:49.155Z,100313.59
2022-09-13T03:45:55.519Z,100307.13
2022-09-13T03:50:59.668Z,100299.63
2022-09-13T03:56:03.346Z,100298.53
2022-09-13T04:01:06.317Z,100302.81
2022-09-13T04:06:11.670Z,100311.09
2022-09-13T04:11:14.334Z,100301.13
2022-09-13T04:16:17.575Z,100318.00
2022-09-13T04:21:21.882Z,100320.16
2022-09-13T04:26:24.561Z,100324.78
2022-09-13T04:31:27.318Z,100332.81
2022-09-13T04:36:32.032Z,100332.22
2022-09-13T04:41:34.945Z,100321.97
2022-09-13T04:46:37.665Z,100321.09
2022-09-13T04:51:41.874Z,100323.56
2022-09-13T04:56:45.448Z,100323.22
2022-09-13T05:01:48.303Z,100329.44
2022-09-13T05:06:52.480Z,100323.84
2022-09-13T05:11:55.189Z,100331.09
2022-09-13T05:16:57.898Z,100334.88
2022-09-13T05:22:02.147Z,100334.38
2022-09-13T05:27:05.678Z,100332.34
2022-09-13T05:32:08.658Z,100337.81
2022-09-13T05:37:12.788Z,100355.59
2022-09-13T05:42:15.689Z,100347.47
2022-09-13T05:47:18.433Z,100335.47
2022-09-13T05:52:22.544Z,100330.72
2022-09-13T05:57:25.327Z,100330.03
2022-09-13T06:02:28.150Z,100337.72
2022-09-13T06:07:32.428Z,100333.31
2022-09-13T06:12:35.438Z,100332.19
2022-09-13T06:17:38.299Z,100340.97
2022-09-13T06:22:42.360Z,100334.97
2022-09-13T06:27:45.229Z,100346.66
2022-09-13T06:32:47.952Z,100351.94
2022-09-13T06:37:52.404Z,100353.00
2022-09-13T06:42:55.131Z,100347.06
2022-09-13T06:47:58.181Z,100343.44
2022-09-13T06:53:02.249Z,100345.94
2022-09-13T06:58:05.032Z,100351.75
2022-09-13T07:03:07.749Z,100342.75
2022-09-13T07:08:11.815Z,100351.25
2022-09-13T07:13:14.582Z,100341.59
2022-09-13T07:18:17.281Z,100343.00
2022-09-13T07:23:21.346Z,100352.84
2022-09-13T07:28:27.352Z,100363.03
2022-09-13T07:33:30.229Z,100363.28
2022-09-13T07:38:35.721Z,100359.25
2022-09-13T07:43:38.702Z,100359.16
2022-09-13T07:48:43.233Z,100371.91
2022-09-13T07:53:48.101Z,100374.63
2022-09-13T07:58:52.676Z,100377.50
2022-09-13T08:03:57.269Z,100387.75
2022-09-13T08:09:01.701Z,100395.13
2022-09-13T08:14:05.435Z,100397.50
2022-09-13T08:19:09.447Z,100392.53
2022-09-13T08:24:17.020Z,100391.13
2022-09-13T08:29:19.790Z,100388.94
2022-09-13T08:34:22.574Z,100392.63
2022-09-13T08:39:29.183Z,100389.56
2022-09-13T08:44:46.620Z,100386.09
2022-09-13T08:49:53.298Z,100387.53
2022-09-13T08:54:58.581Z,100392.75
2022-09-13T09:00:09.700Z,100399.31
2022-09-13T09:05:18.308Z,100391.38
2022-09-13T09:10:27.404Z,100399.94
2022-09-13T09:15:35.230Z,100399.03
2022-09-13T09:20:42.461Z,100398.31
2022-09-13T09:25:47.291Z,100400.63
2022-09-13T09:31:00.026Z,100404.72
2022-09-13T09:36:11.181Z,100402.25
2022-09-13T09:41:27.112Z,100414.38
2022-09-13T09:46:35.343Z,100410.44
2022-09-13T09:51:38.205Z,100402.50
2022-09-13T09:56:53.834Z,100401.44
2022-09-13T10:01:57.816Z,100394.91
2022-09-13T10:07:20.092Z,100396.06
2022-09-13T10:12:29.353Z,100398.56
2022-09-13T10:17:32.210Z,100393.00
2022-09-13T10:22:34.987Z,100400.34
2022-09-13T10:27:43.210Z,100396.41
2022-09-13T10:32:56.570Z,100396.75
2022-09-13T10:37:59.524Z,100395.63
2022-09-13T10:43:08.372Z,100399.22
2022-09-13T10:48:14.887Z,100375.13
2022-09-13T10:53:34.614Z,100394.03
2022-09-13T10:58:38.774Z,100380.47
2022-09-13T11:04:04.547Z,100379.00
2022-09-13T11:09:14.534Z,100374.03
2022-09-13T11:14:32.836Z,100374.47
2022-09-13T11:19:59.455Z,100376.63
2022-09-13T11:25:14.943Z,100376.91
2022-09-13T11:30:21.206Z,100379.25
2022-09-13T11:35:44.874Z,100364.91
2022-09-13T11:40:56.666Z,100362.25
2022-09-13T11:46:09.873Z,100361.66
2022-09-13T11:51:19.287Z,100360.19
2022-09-13T11:56:27.491Z,100366.66
2022-09-13T12:01:40.184Z,100351.53
2022-09-13T12:06:47.391Z,100350.66
2022-09-13T12:11:54.210Z,100350.03
2022-09-13T12:17:04.741Z,100354.72
2022-09-13T12:22:09.187Z,100356.75
2022-09-13T12:27:23.133Z,100358.22
2022-09-13T12:32:29.035Z,100350.97
2022-09-13T12:37:50.041Z,100362.28
2022-09-13T12:43:13.644Z,100369.16
2022-09-13T12:48:40.497Z,100358.63
2022-09-13T12:54:02.534Z,100369.91
2022-09-13T12:59:28.167Z,100378.22
2022-09-13T13:04:37.485Z,100360.50
2022-09-13T13:09:44.252Z,100357.59
2022-09-13T13:14:53.543Z,100359.34
2022-09-13T13:19:57.950Z,100367.59
2022-09-13T13:25:36.719Z,100365.00
2022-09-13T13:30:44.098Z,100374.00
2022-09-13T13:35:49.061Z,100372.06
2022-09-13T13:40:54.067Z,100376.31
2022-09-13T13:46:16.101Z,100380.09
2022-09-13T13:51:26.223Z,100380.31
2022-09-13T13:56:50.524Z,100380.97
2022-09-13T14:01:59.250Z,100379.56
2022-09-13T14:07:19.520Z,100385.50
2022-09-13T14:12:33.943Z,100381.63
2022-09-13T14:18:14.784Z,100391.38
2022-09-13T14:23:20.107Z,100383.94
2022-09-13T14:28:24.171Z,100387.75
2022-09-13T14:33:32.038Z,100384.81
2022-09-13T14:38:37.489Z,100381.00
2022-09-13T14:43:40.427Z,100387.59
2022-09-13T14:48:50.173Z,100377.94
2022-09-13T14:54:00.822Z,100380.78
2022-09-13T14:59:06.597Z,100372.63
2022-09-13T15:04:10.040Z,100375.69
2022-09-13T15:09:28.567Z,100382.34
2022-09-13T15:14:32.933Z,100370.72
2022-09-13T15:19:41.785Z,100365.09
2022-09-13T15:24:48.945Z,100364.53
2022-09-13T15:29:53.905Z,100373.56
2022-09-13T15:34:58.468Z,100378.66
2022-09-13T15:40:16.794Z,100388.75
2022-09-13T15:45:20.577Z,100397.84
2022-09-13T15:50:26.852Z,100399.59
2022-09-13T15:55:32.376Z,100402.72
2022-09-13T16:00:36.901Z,100406.59
2022-09-13T16:05:39.895Z,100406.13
2022-09-13T16:10:44.065Z,100400.69
2022-09-13T16:15:47.245Z,100403.19
2022-09-13T16:20:51.003Z,100398.28
2022-09-13T16:25:58.114Z,100406.84
2022-09-13T16:31:00.955Z,100406.13
2022-09-13T16:36:04.125Z,100399.94
2022-09-13T16:41:08.639Z,100397.66
2022-09-13T16:46:13.505Z,100399.34
2022-09-13T16:51:16.763Z,100399.97
2022-09-13T16:56:22.754Z,100398.31
2022-09-13T17:01:27.386Z,100400.41
2022-09-13T17:06:30.285Z,100400.38
2022-09-13T17:11:36.435Z,100402.91
2022-09-13T17:16:41.370Z,100401.03
2022-09-13T17:21:44.381Z,100396.84
2022-09-13T17:26:48.812Z,100387.19
2022-09-13T17:31:51.724Z,100396.25
2022-09-13T17:36:54.704Z,100404.47
2022-09-13T17:42:06.255Z,100398.91
2022-09-13T17:47:09.086Z,100406.56
2022-09-13T17:52:12.009Z,100411.91
2022-09-13T17:57:16.313Z,100402.91
2022-09-13T18:02:19.263Z,100405.66
2022-09-13T18:07:22.213Z,100402.22
2022-09-13T18:12:26.480Z,100403.56
2022-09-13T18:17:29.240Z,100417.22
2022-09-13T18:22:34.761Z,100408.63
2022-09-13T18:27:38.999Z,100407.06
2022-09-13T18:32:41.819Z,100408.19
2022-09-13T18:37:44.713Z,100409.53
2022-09-13T18:42:48.832Z,100415.41
2022-09-13T18:47:51.656Z,100409.09
2022-09-13T18:52:54.365Z,100420.47
2022-09-13T18:57:58.579Z,100411.09
2022-09-13T19:03:11.980Z,100406.69
2022-09-13T19:08:15.623Z,100406.81
2022-09-13T19:13:19.868Z,100412.75
2022-09-13T19:18:22.654Z,100416.63
2022-09-13T19:23:37.676Z,100409.78
2022-09-13T19:29:00.107Z,100401.38
2022-09-13T19:34:04.246Z,100408.00
2022-09-13T19:39:08.820Z,100415.19
2022-09-13T19:44:20.033Z,100405.34
2022-09-13T19:49:23.162Z,100405.13
2022-09-13T19:54:28.359Z,100395.06
2022-09-13T19:59:42.508Z,100402.72
2022-09-13T20:04:47.956Z,100395.88
2022-09-13T20:09:51.301Z,100403.13
2022-09-13T20:14:55.415Z,100392.81
2022-09-13T20:19:58.474Z,100386.75
2022-09-13T20:25:01.424Z,100393.28
2022-09-13T20:30:06.485Z,100388.72
2022-09-13T20:35:11.086Z,100385.09
2022-09-13T20:40:15.038Z,100386.34
2022-09-13T20:45:19.395Z,100375.88
2022-09-13T20:50:22.122Z,100383.00
2022-09-13T20:55:25.077Z,100381.63
2022-09-13T21:00:29.135Z,100372.44
2022-09-13T21:05:32.170Z,100372.22
2022-09-13T21:10:35.586Z,100363.81
2022-09-13T21:15:40.152Z,100368.91
2022-09-13T21:20:42.973Z,100365.34
2022-09-13T21:25:46.067Z,100364.06
2022-09-13T21:30:58.408Z,100365.47
2022-09-13T21:36:02.498Z,100373.06
2022-09-13T21:41:07.648Z,100375.75
2022-09-13T21:46:16.471Z,100373.22
2022-09-13T21:51:21.552Z,100373.72
2022-09-13T21:56:26.619Z,100372.06
2022-09-13T22:01:33.162Z,100367.97
2022-09-13T22:06:36.041Z,100369.84
2022-09-13T22:11:43.572Z,100358.59
2022-09-13T22:16:47.800Z,100362.06
2022-09-13T22:21:54.015Z,100362.28
2022-09-13T22:26:58.097Z,100365.72
2022-09-13T22:32:02.456Z,100369.63
2022-09-13T22:37:05.521Z,100368.97
2022-09-13T22:42:08.492Z,100356.25
2022-09-13T22:47:12.567Z,100347.97
2022-09-13T22:52:15.286Z,100347.69
2022-09-13T22:57:18.237Z,100341.41
2022-09-13T23:02:22.290Z,100336.47
2022-09-13T23:07:25.682Z,100339.56
2022-09-13T23:12:30.410Z,100339.41
2022-09-13T23:17:34.540Z,100335.63
2022-09-13T23:22:37.297Z,100341.78
2022-09-13T23:27:40.155Z,100341.75
2022-09-13T23:32:47.463Z,100338.50
2022-09-13T23:37:50.267Z,100325.44
2022-09-13T23:42:52.980Z,100335.72
2022-09-13T23:47:57.050Z,100336.72
2022-09-13T23:53:00.408Z,100333.13
2022-09-13T23:58:03.106Z,100327.03
